sensor_id;sensor_type;location;lat;lon;timestamp;pressure;altitude;pressure_sealevel;temperature;humidity
62948;BME280;51940;52.126;-0.994;2023-01-29T00:01:27;102008.27;;;3.91;100.00
62948;BME280;51940;52.126;-0.994;2023-01-29T00:03:54;102010.90;;;3.90;100.00
62948;BME280;51940;52.126;-0.994;2023-01-29T00:06:19;102017.42;;;3.90;100.00
62948;BME280;51940;52.126;-0.994;2023-01-29T00:08:45;102022.73;;;3.90;100.00
62948;BME280;51940;52.126;-0.994;2023-01-29T00:11:11;102017.08;;;3.90;100.00
62948;BME280;51940;52.126;-0.994;2023-01-29T00:13:37;102012.29;;;3.89;100.00
62948;BME280;51940;52.126;-0.994;2023-01-29T00:16:03;102009.64;;;3.89;100.00
62948;BME280;51940;52.126;-0.994;2023-01-29T00:18:29;102003.27;;;3.89;100.00
62948;BME280;51940;52.126;-0.994;2023-01-29T00:20:55;102003.97;;;3.88;100.00
62948;BME280;51940;52.126;-0.994;2023-01-29T00:23:21;101998.14;;;3.88;100.00
62948;BME280;51940;52.126;-0.994;2023-01-29T00:25:47;101996.37;;;3.88;100.00
62948;BME280;51940;52.126;-0.994;2023-01-29T00:28:13;101995.14;;;3.88;100.00
62948;BME280;51940;52.126;-0.994;2023-01-29T00:30:39;101987.19;;;3.88;100.00
62948;BME280;51940;52.126;-0.994;2023-01-29T00:33:04;101991.95;;;3.88;100.00
62948;BME280;51940;52.126;-0.994;2023-01-29T00:35:31;101989.30;;;3.87;100.00
62948;BME280;51940;52.126;-0.994;2023-01-29T00:37:57;101987.70;;;3.87;100.00
62948;BME280;51940;52.126;-0.994;2023-01-29T00:40:24;101983.98;;;3.86;100.00
62948;BME280;51940;52.126;-0.994;2023-01-29T00:42:50;101983.27;;;3.86;100.00
62948;BME280;51940;52.126;-0.994;2023-01-29T00:45:35;101981.50;;;3.86;100.00
62948;BME280;51940;52.126;-0.994;2023-01-29T00:48:02;101983.61;;;3.85;100.00
62948;BME280;51940;52.126;-0.994;2023-01-29T00:50:27;101982.36;;;3.85;100.00
62948;BME280;51940;52.126;-0.994;2023-01-29T00:52:53;101981.10;;;3.85;100.00
62948;BME280;51940;52.126;-0.994;2023-01-29T00:55:19;101977.73;;;3.84;100.00
62948;BME280;51940;52.126;-0.994;2023-01-29T00:57:44;101979.63;;;3.83;100.00
62948;BME280;51940;52.126;-0.994;2023-01-29T01:00:14;101983.69;;;3.83;100.00
62948;BME280;51940;52.126;-0.994;2023-01-29T01:02:40;101982.24;;;3.82;100.00
62948;BME280;51940;52.126;-0.994;2023-01-29T01:05:24;101984.52;;;3.82;100.00
62948;BME280;51940;52.126;-0.994;2023-01-29T01:07:52;101984.51;;;3.81;100.00
62948;BME280;51940;52.126;-0.994;2023-01-29T01:10:24;101990.31;;;3.80;100.00
62948;BME280;51940;52.126;-0.994;2023-01-29T01:12:57;101992.95;;;3.80;100.00
62948;BME280;51940;52.126;-0.994;2023-01-29T01:15:27;101995.05;;;3.79;100.00
62948;BME280;51940;52.126;-0.994;2023-01-29T01:17:55;101989.91;;;3.78;100.00
62948;BME280;51940;52.126;-0.994;2023-01-29T01:20:22;101987.80;;;3.78;100.00
62948;BME280;51940;52.126;-0.994;2023-01-29T01:22:48;101984.07;;;3.78;100.00
62948;BME280;51940;52.126;-0.994;2023-01-29T01:25:13;101986.17;;;3.77;100.00
62948;BME280;51940;52.126;-0.994;2023-01-29T01:27:40;101987.55;;;3.76;100.00
62948;BME280;51940;52.126;-0.994;2023-01-29T01:30:14;101979.77;;;3.76;100.00
62948;BME280;51940;52.126;-0.994;2023-01-29T01:32:40;101986.15;;;3.76;100.00
62948;BME280;51940;52.126;-0.994;2023-01-29T01:35:07;101990.36;;;3.76;100.00
62948;BME280;51940;52.126;-0.994;2023-01-29T01:37:33;101984.34;;;3.75;100.00
62948;BME280;51940;52.126;-0.994;2023-01-29T01:40:03;101985.61;;;3.76;100.00
62948;BME280;51940;52.126;-0.994;2023-01-29T01:42:30;101983.31;;;3.76;100.00
62948;BME280;51940;52.126;-0.994;2023-01-29T01:45:01;101979.82;;;3.77;100.00
62948;BME280;51940;52.126;-0.994;2023-01-29T01:47:48;101974.54;;;3.77;100.00
62948;BME280;51940;52.126;-0.994;2023-01-29T01:53:10;101972.45;;;3.78;100.00
62948;BME280;51940;52.126;-0.994;2023-01-29T01:55:40;101969.25;;;3.78;100.00
62948;BME280;51940;52.126;-0.994;2023-01-29T01:58:12;101968.55;;;3.78;100.00
62948;BME280;51940;52.126;-0.994;2023-01-29T02:00:41;101967.66;;;3.78;100.00
62948;BME280;51940;52.126;-0.994;2023-01-29T02:03:08;101968.38;;;3.78;100.00
62948;BME280;51940;52.126;-0.994;2023-01-29T02:05:54;101967.65;;;3.77;100.00
62948;BME280;51940;52.126;-0.994;2023-01-29T02:09:01;101969.94;;;3.77;100.00
62948;BME280;51940;52.126;-0.994;2023-01-29T02:11:46;101963.02;;;3.76;100.00
62948;BME280;51940;52.126;-0.994;2023-01-29T02:14:12;101960.16;;;3.75;100.00
62948;BME280;51940;52.126;-0.994;2023-01-29T02:16:37;101965.98;;;3.75;100.00
62948;BME280;51940;52.126;-0.994;2023-01-29T02:19:23;101965.79;;;3.75;100.00
62948;BME280;51940;52.126;-0.994;2023-01-29T02:22:07;101968.77;;;3.74;100.00
62948;BME280;51940;52.126;-0.994;2023-01-29T02:27:32;101953.92;;;3.73;100.00
62948;BME280;51940;52.126;-0.994;2023-01-29T02:30:16;101944.75;;;3.73;100.00
62948;BME280;51940;52.126;-0.994;2023-01-29T02:35:41;101926.19;;;3.72;100.00
62948;BME280;51940;52.126;-0.994;2023-01-29T02:38:12;101919.08;;;3.70;100.00
62948;BME280;51940;52.126;-0.994;2023-01-29T02:41:00;101915.98;;;3.66;100.00
62948;BME280;51940;52.126;-0.994;2023-01-29T02:43:51;101905.30;;;3.63;100.00
62948;BME280;51940;52.126;-0.994;2023-01-29T02:46:38;101905.20;;;3.59;100.00
62948;BME280;51940;52.126;-0.994;2023-01-29T02:54:22;101900.45;;;3.54;100.00
62948;BME280;51940;52.126;-0.994;2023-01-29T02:56:56;101900.59;;;3.52;100.00
62948;BME280;51940;52.126;-0.994;2023-01-29T02:59:31;101900.54;;;3.51;100.00
62948;BME280;51940;52.126;-0.994;2023-01-29T03:02:09;101898.52;;;3.48;100.00
62948;BME280;51940;52.126;-0.994;2023-01-29T03:04:40;101901.80;;;3.45;100.00
62948;BME280;51940;52.126;-0.994;2023-01-29T03:07:14;101899.27;;;3.44;100.00
62948;BME280;51940;52.126;-0.994;2023-01-29T03:10:01;101902.23;;;3.42;100.00
62948;BME280;51940;52.126;-0.994;2023-01-29T03:12:29;101892.48;;;3.42;100.00
62948;BME280;51940;52.126;-0.994;2023-01-29T03:15:08;101891.09;;;3.42;100.00
62948;BME280;51940;52.126;-0.994;2023-01-29T03:18:14;101885.99;;;3.42;100.00
62948;BME280;51940;52.126;-0.994;2023-01-29T03:20:44;101880.86;;;3.42;100.00
62948;BME280;51940;52.126;-0.994;2023-01-29T03:23:18;101876.60;;;3.41;100.00
62948;BME280;51940;52.126;-0.994;2023-01-29T03:26:03;101873.05;;;3.39;100.00
62948;BME280;51940;52.126;-0.994;2023-01-29T03:28:49;101873.15;;;3.36;100.00
62948;BME280;51940;52.126;-0.994;2023-01-29T03:31:35;101872.52;;;3.33;100.00
62948;BME280;51940;52.126;-0.994;2023-01-29T03:34:26;101877.38;;;3.31;100.00
62948;BME280;51940;52.126;-0.994;2023-01-29T03:37:03;101875.92;;;3.29;100.00
62948;BME280;51940;52.126;-0.994;2023-01-29T03:39:32;101873.81;;;3.29;100.00
62948;BME280;51940;52.126;-0.994;2023-01-29T03:42:26;101867.31;;;3.30;100.00
62948;BME280;51940;52.126;-0.994;2023-01-29T03:56:01;101858.84;;;3.30;100.00
62948;BME280;51940;52.126;-0.994;2023-01-29T04:01:45;101864.26;;;3.28;100.00
62948;BME280;51940;52.126;-0.994;2023-01-29T04:04:17;101865.81;;;3.27;100.00
62948;BME280;51940;52.126;-0.994;2023-01-29T04:06:48;101857.35;;;3.27;100.00
62948;BME280;51940;52.126;-0.994;2023-01-29T04:09:29;101848.17;;;3.26;100.00
62948;BME280;51940;52.126;-0.994;2023-01-29T04:12:08;101829.63;;;3.25;100.00
62948;BME280;51940;52.126;-0.994;2023-01-29T04:14:36;101821.95;;;3.23;100.00
62948;BME280;51940;52.126;-0.994;2023-01-29T04:17:22;101813.96;;;3.20;100.00
62948;BME280;51940;52.126;-0.994;2023-01-29T04:19:50;101824.95;;;3.17;100.00
62948;BME280;51940;52.126;-0.994;2023-01-29T04:22:22;101832.05;;;3.12;100.00
62948;BME280;51940;52.126;-0.994;2023-01-29T04:24:50;101825.65;;;3.10;100.00
62948;BME280;51940;52.126;-0.994;2023-01-29T04:30:15;101842.27;;;3.06;100.00
62948;BME280;51940;52.126;-0.994;2023-01-29T04:32:56;101841.48;;;3.03;100.00
62948;BME280;51940;52.126;-0.994;2023-01-29T04:46:20;101824.49;;;3.07;100.00
62948;BME280;51940;52.126;-0.994;2023-01-29T04:49:42;101820.48;;;3.08;100.00
62948;BME280;51940;52.126;-0.994;2023-01-29T04:52:06;101817.16;;;3.09;100.00
62948;BME280;51940;52.126;-0.994;2023-01-29T04:57:21;101810.41;;;3.07;100.00
62948;BME280;51940;52.126;-0.994;2023-01-29T04:59:57;101804.71;;;3.06;100.00
62948;BME280;51940;52.126;-0.994;2023-01-29T05:02:25;101798.18;;;3.05;100.00
62948;BME280;51940;52.126;-0.994;2023-01-29T05:04:53;101795.88;;;3.05;100.00
62948;BME280;51940;52.126;-0.994;2023-01-29T05:07:19;101793.43;;;3.06;100.00
62948;BME280;51940;52.126;-0.994;2023-01-29T05:09:48;101793.06;;;3.05;100.00
62948;BME280;51940;52.126;-0.994;2023-01-29T05:12:16;101796.59;;;3.05;100.00
62948;BME280;51940;52.126;-0.994;2023-01-29T05:14:44;101794.66;;;3.06;100.00
62948;BME280;51940;52.126;-0.994;2023-01-29T05:17:15;101794.68;;;3.06;100.00
62948;BME280;51940;52.126;-0.994;2023-01-29T05:19:41;101787.65;;;3.07;100.00
62948;BME280;51940;52.126;-0.994;2023-01-29T05:22:09;101780.84;;;3.08;100.00
62948;BME280;51940;52.126;-0.994;2023-01-29T05:24:36;101781.41;;;3.10;100.00
62948;BME280;51940;52.126;-0.994;2023-01-29T05:27:01;101776.67;;;3.11;100.00
62948;BME280;51940;52.126;-0.994;2023-01-29T05:29:46;101769.27;;;3.11;100.00
62948;BME280;51940;52.126;-0.994;2023-01-29T05:32:12;101756.23;;;3.11;100.00
62948;BME280;51940;52.126;-0.994;2023-01-29T05:34:38;101746.35;;;3.11;100.00
62948;BME280;51940;52.126;-0.994;2023-01-29T05:37:03;101733.48;;;3.10;100.00
62948;BME280;51940;52.126;-0.994;2023-01-29T05:39:29;101731.52;;;3.09;100.00
62948;BME280;51940;52.126;-0.994;2023-01-29T05:41:54;101727.23;;;3.08;100.00
62948;BME280;51940;52.126;-0.994;2023-01-29T05:44:20;101728.61;;;3.07;100.00
62948;BME280;51940;52.126;-0.994;2023-01-29T05:46:45;101734.42;;;3.07;100.00
62948;BME280;51940;52.126;-0.994;2023-01-29T05:49:10;101741.61;;;3.05;100.00
62948;BME280;51940;52.126;-0.994;2023-01-29T05:51:36;101732.06;;;3.05;100.00
62948;BME280;51940;52.126;-0.994;2023-01-29T05:54:01;101728.18;;;3.04;100.00
62948;BME280;51940;52.126;-0.994;2023-01-29T05:56:27;101727.45;;;3.03;100.00
62948;BME280;51940;52.126;-0.994;2023-01-29T05:58:53;101726.56;;;3.03;100.00
62948;BME280;51940;52.126;-0.994;2023-01-29T06:01:23;101726.91;;;3.03;100.00
62948;BME280;51940;52.126;-0.994;2023-01-29T06:03:49;101726.21;;;3.03;100.00
62948;BME280;51940;52.126;-0.994;2023-01-29T06:06:15;101725.52;;;3.04;100.00
62948;BME280;51940;52.126;-0.994;2023-01-29T06:08:41;101724.84;;;3.04;100.00
62948;BME280;51940;52.126;-0.994;2023-01-29T06:11:08;101720.24;;;3.04;100.00
62948;BME280;51940;52.126;-0.994;2023-01-29T06:13:34;101717.09;;;3.05;100.00
62948;BME280;51940;52.126;-0.994;2023-01-29T06:15:59;101717.45;;;3.05;100.00
62948;BME280;51940;52.126;-0.994;2023-01-29T06:18:25;101718.69;;;3.05;100.00
62948;BME280;51940;52.126;-0.994;2023-01-29T06:20:50;101710.05;;;3.05;100.00
62948;BME280;51940;52.126;-0.994;2023-01-29T06:23:16;101711.28;;;3.05;100.00
62948;BME280;51940;52.126;-0.994;2023-01-29T06:25:41;101710.55;;;3.04;100.00
62948;BME280;51940;52.126;-0.994;2023-01-29T06:28:07;101711.09;;;3.04;100.00
62948;BME280;51940;52.126;-0.994;2023-01-29T06:30:32;101713.55;;;3.04;100.00
62948;BME280;51940;52.126;-0.994;2023-01-29T06:32:58;101715.33;;;3.05;100.00
62948;BME280;51940;52.126;-0.994;2023-01-29T06:35:26;101713.02;;;3.04;100.00
62948;BME280;51940;52.126;-0.994;2023-01-29T06:37:53;101709.69;;;3.05;100.00
62948;BME280;51940;52.126;-0.994;2023-01-29T06:40:19;101705.63;;;3.05;100.00
62948;BME280;51940;52.126;-0.994;2023-01-29T06:42:44;101703.17;;;3.05;100.00
62948;BME280;51940;52.126;-0.994;2023-01-29T06:45:10;101698.76;;;3.04;100.00
62948;BME280;51940;52.126;-0.994;2023-01-29T06:47:35;101698.03;;;3.04;100.00
62948;BME280;51940;52.126;-0.994;2023-01-29T06:50:01;101700.13;;;3.03;100.00
62948;BME280;51940;52.126;-0.994;2023-01-29T06:52:26;101699.95;;;3.02;100.00
62948;BME280;51940;52.126;-0.994;2023-01-29T06:54:54;101700.08;;;3.01;100.00
62948;BME280;51940;52.126;-0.994;2023-01-29T06:57:19;101701.25;;;2.99;100.00
62948;BME280;51940;52.126;-0.994;2023-01-29T06:59:45;101695.20;;;2.97;100.00
62948;BME280;51940;52.126;-0.994;2023-01-29T07:02:11;101691.80;;;2.95;100.00
62948;BME280;51940;52.126;-0.994;2023-01-29T07:04:36;101691.95;;;2.94;100.00
62948;BME280;51940;52.126;-0.994;2023-01-29T07:07:02;101691.02;;;2.93;100.00
62948;BME280;51940;52.126;-0.994;2023-01-29T07:09:28;101682.19;;;2.91;100.00
62948;BME280;51940;52.126;-0.994;2023-01-29T07:11:53;101685.10;;;2.89;100.00
62948;BME280;51940;52.126;-0.994;2023-01-29T07:14:18;101683.79;;;2.86;100.00
62948;BME280;51940;52.126;-0.994;2023-01-29T07:16:44;101681.24;;;2.82;100.00
62948;BME280;51940;52.126;-0.994;2023-01-29T07:19:09;101680.82;;;2.80;100.00
62948;BME280;51940;52.126;-0.994;2023-01-29T07:21:35;101680.39;;;2.77;100.00
62948;BME280;51940;52.126;-0.994;2023-01-29T07:24:01;101681.52;;;2.74;100.00
62948;BME280;51940;52.126;-0.994;2023-01-29T07:26:27;101677.36;;;2.70;100.00
62948;BME280;51940;52.126;-0.994;2023-01-29T07:28:53;101682.52;;;2.66;100.00
62948;BME280;51940;52.126;-0.994;2023-01-29T07:31:18;101682.09;;;2.63;100.00
62948;BME280;51940;52.126;-0.994;2023-01-29T07:33:44;101679.38;;;2.61;100.00
62948;BME280;51940;52.126;-0.994;2023-01-29T07:36:10;101680.95;;;2.60;100.00
62948;BME280;51940;52.126;-0.994;2023-01-29T07:38:36;101682.00;;;2.60;100.00
62948;BME280;51940;52.126;-0.994;2023-01-29T07:41:02;101685.56;;;2.62;100.00
62948;BME280;51940;52.126;-0.994;2023-01-29T07:43:27;101688.08;;;2.64;100.00
62948;BME280;51940;52.126;-0.994;2023-01-29T07:45:54;101690.12;;;2.66;100.00
62948;BME280;51940;52.126;-0.994;2023-01-29T07:48:19;101685.55;;;2.66;100.00
62948;BME280;51940;52.126;-0.994;2023-01-29T07:50:53;101687.67;;;2.67;100.00
62948;BME280;51940;52.126;-0.994;2023-01-29T07:53:19;101682.95;;;2.68;100.00
62948;BME280;51940;52.126;-0.994;2023-01-29T07:55:45;101680.81;;;2.68;100.00
62948;BME280;51940;52.126;-0.994;2023-01-29T07:58:11;101677.90;;;2.65;100.00
62948;BME280;51940;52.126;-0.994;2023-01-29T08:00:36;101680.30;;;2.62;100.00
62948;BME280;51940;52.126;-0.994;2023-01-29T08:03:15;101676.73;;;2.60;100.00
62948;BME280;51940;52.126;-0.994;2023-01-29T08:05:44;101674.21;;;2.58;100.00
62948;BME280;51940;52.126;-0.994;2023-01-29T08:08:10;101677.89;;;2.58;100.00
62948;BME280;51940;52.126;-0.994;2023-01-29T08:10:38;101676.52;;;2.59;100.00
62948;BME280;51940;52.126;-0.994;2023-01-29T08:13:05;101676.02;;;2.61;100.00
62948;BME280;51940;52.126;-0.994;2023-01-29T08:15:31;101675.71;;;2.62;100.00
62948;BME280;51940;52.126;-0.994;2023-01-29T08:17:56;101672.94;;;2.64;100.00
62948;BME280;51940;52.126;-0.994;2023-01-29T08:20:22;101671.23;;;2.65;100.00
62948;BME280;51940;52.126;-0.994;2023-01-29T08:22:48;101674.30;;;2.68;100.00
62948;BME280;51940;52.126;-0.994;2023-01-29T08:25:13;101675.99;;;2.72;100.00
62948;BME280;51940;52.126;-0.994;2023-01-29T08:27:39;101675.26;;;2.76;100.00
62948;BME280;51940;52.126;-0.994;2023-01-29T08:30:06;101674.10;;;2.80;100.00
62948;BME280;51940;52.126;-0.994;2023-01-29T08:32:31;101669.81;;;2.83;100.00
62948;BME280;51940;52.126;-0.994;2023-01-29T08:34:57;101670.62;;;2.88;100.00
62948;BME280;51940;52.126;-0.994;2023-01-29T08:37:22;101671.61;;;2.91;100.00
62948;BME280;51940;52.126;-0.994;2023-01-29T08:39:48;101662.70;;;2.94;100.00
62948;BME280;51940;52.126;-0.994;2023-01-29T08:42:13;101658.92;;;2.98;100.00
62948;BME280;51940;52.126;-0.994;2023-01-29T08:44:39;101657.27;;;3.01;100.00
62948;BME280;51940;52.126;-0.994;2023-01-29T08:47:04;101656.88;;;3.06;100.00
62948;BME280;51940;52.126;-0.994;2023-01-29T08:49:30;101657.15;;;3.10;100.00
62948;BME280;51940;52.126;-0.994;2023-01-29T08:51:55;101656.56;;;3.15;100.00
62948;BME280;51940;52.126;-0.994;2023-01-29T08:54:22;101662.88;;;3.20;100.00
62948;BME280;51940;52.126;-0.994;2023-01-29T08:56:47;101662.66;;;3.25;100.00
62948;BME280;51940;52.126;-0.994;2023-01-29T08:59:13;101660.00;;;3.31;100.00
62948;BME280;51940;52.126;-0.994;2023-01-29T09:01:38;101655.95;;;3.39;100.00
62948;BME280;51940;52.126;-0.994;2023-01-29T09:04:04;101656.83;;;3.46;100.00
62948;BME280;51940;52.126;-0.994;2023-01-29T09:06:30;101656.44;;;3.51;100.00
62948;BME280;51940;52.126;-0.994;2023-01-29T09:08:55;101660.11;;;3.57;100.00
62948;BME280;51940;52.126;-0.994;2023-01-29T09:11:21;101659.38;;;3.63;100.00
62948;BME280;51940;52.126;-0.994;2023-01-29T09:13:46;101656.38;;;3.70;100.00
62948;BME280;51940;52.126;-0.994;2023-01-29T09:16:11;101659.19;;;3.77;100.00
62948;BME280;51940;52.126;-0.994;2023-01-29T09:18:37;101653.91;;;3.85;100.00
62948;BME280;51940;52.126;-0.994;2023-01-29T09:21:03;101653.56;;;3.93;100.00
62948;BME280;51940;52.126;-0.994;2023-01-29T09:23:29;101650.91;;;4.01;100.00
62948;BME280;51940;52.126;-0.994;2023-01-29T09:25:55;101650.69;;;4.06;100.00
62948;BME280;51940;52.126;-0.994;2023-01-29T09:28:20;101650.27;;;4.11;100.00
62948;BME280;51940;52.126;-0.994;2023-01-29T09:30:46;101649.83;;;4.15;100.00
62948;BME280;51940;52.126;-0.994;2023-01-29T09:33:11;101648.54;;;4.20;100.00
62948;BME280;51940;52.126;-0.994;2023-01-29T09:35:40;101649.54;;;4.26;100.00
62948;BME280;51940;52.126;-0.994;2023-01-29T09:38:07;101648.26;;;4.33;100.00
62948;BME280;51940;52.126;-0.994;2023-01-29T09:43:29;101650.08;;;4.43;100.00
62948;BME280;51940;52.126;-0.994;2023-01-29T09:46:04;101645.03;;;4.46;100.00
62948;BME280;51940;52.126;-0.994;2023-01-29T09:48:33;101644.53;;;4.48;100.00
62948;BME280;51940;52.126;-0.994;2023-01-29T09:51:03;101642.98;;;4.49;100.00
62948;BME280;51940;52.126;-0.994;2023-01-29T09:53:35;101637.58;;;4.53;100.00
62948;BME280;51940;52.126;-0.994;2023-01-29T09:56:07;101636.58;;;4.56;100.00
62948;BME280;51940;52.126;-0.994;2023-01-29T09:58:37;101634.89;;;4.61;100.00
62948;BME280;51940;52.126;-0.994;2023-01-29T10:01:24;101632.35;;;4.66;100.00
62948;BME280;51940;52.126;-0.994;2023-01-29T10:15:26;101628.42;;;5.01;100.00
62948;BME280;51940;52.126;-0.994;2023-01-29T10:20:48;101628.45;;;5.12;100.00
62948;BME280;51940;52.126;-0.994;2023-01-29T10:23:27;101621.50;;;5.19;100.00
62948;BME280;51940;52.126;-0.994;2023-01-29T10:25:54;101621.65;;;5.27;100.00
62948;BME280;51940;52.126;-0.994;2023-01-29T10:28:28;101618.77;;;5.35;100.00
62948;BME280;51940;52.126;-0.994;2023-01-29T10:31:03;101617.14;;;5.43;100.00
62948;BME280;51940;52.126;-0.994;2023-01-29T10:33:41;101614.45;;;5.52;100.00
62948;BME280;51940;52.126;-0.994;2023-01-29T10:36:16;101609.27;;;5.60;100.00
62948;BME280;51940;52.126;-0.994;2023-01-29T10:43:59;101597.05;;;5.93;100.00
62948;BME280;51940;52.126;-0.994;2023-01-29T10:46:43;101591.92;;;6.06;100.00
62948;BME280;51940;52.126;-0.994;2023-01-29T10:49:35;101586.61;;;6.19;100.00
62948;BME280;51940;52.126;-0.994;2023-01-29T10:52:34;101582.15;;;6.31;100.00
62948;BME280;51940;52.126;-0.994;2023-01-29T10:58:18;101566.48;;;6.55;100.00
62948;BME280;51940;52.126;-0.994;2023-01-29T11:00:46;101557.60;;;6.69;100.00
62948;BME280;51940;52.126;-0.994;2023-01-29T11:03:16;101550.61;;;6.79;100.00
62948;BME280;51940;52.126;-0.994;2023-01-29T11:06:03;101546.93;;;6.84;100.00
62948;BME280;51940;52.126;-0.994;2023-01-29T11:16:50;101533.58;;;6.98;100.00
62948;BME280;51940;52.126;-0.994;2023-01-29T11:19:16;101531.80;;;6.99;100.00
62948;BME280;51940;52.126;-0.994;2023-01-29T11:21:59;101527.19;;;6.97;100.00
62948;BME280;51940;52.126;-0.994;2023-01-29T11:24:26;101525.95;;;6.96;100.00
62948;BME280;51940;52.126;-0.994;2023-01-29T11:26:56;101523.46;;;6.96;100.00
62948;BME280;51940;52.126;-0.994;2023-01-29T11:31:52;101504.52;;;7.00;100.00
62948;BME280;51940;52.126;-0.994;2023-01-29T11:34:22;101501.73;;;7.06;100.00
62948;BME280;51940;52.126;-0.994;2023-01-29T11:37:14;101493.27;;;7.10;100.00
62948;BME280;51940;52.126;-0.994;2023-01-29T11:39:43;101487.23;;;7.12;100.00
62948;BME280;51940;52.126;-0.994;2023-01-29T11:42:18;101476.23;;;7.11;100.00
62948;BME280;51940;52.126;-0.994;2023-01-29T11:44:45;101479.25;;;7.12;100.00
62948;BME280;51940;52.126;-0.994;2023-01-29T11:49:37;101472.73;;;7.20;100.00
62948;BME280;51940;52.126;-0.994;2023-01-29T11:52:06;101466.41;;;7.29;100.00
62948;BME280;51940;52.126;-0.994;2023-01-29T11:54:59;101464.35;;;7.41;100.00
62948;BME280;51940;52.126;-0.994;2023-01-29T11:57:40;101463.20;;;7.55;100.00
62948;BME280;51940;52.126;-0.994;2023-01-29T12:00:20;101459.25;;;7.85;100.00
62948;BME280;51940;52.126;-0.994;2023-01-29T12:02:54;101457.20;;;8.10;100.00
62948;BME280;51940;52.126;-0.994;2023-01-29T12:05:23;101453.73;;;8.32;100.00
62948;BME280;51940;52.126;-0.994;2023-01-29T12:07:52;101448.27;;;8.48;100.00
62948;BME280;51940;52.126;-0.994;2023-01-29T12:10:38;101435.66;;;8.61;100.00
62948;BME280;51940;52.126;-0.994;2023-01-29T12:15:34;101413.43;;;8.67;100.00
62948;BME280;51940;52.126;-0.994;2023-01-29T12:20:57;101396.70;;;8.61;100.00
62948;BME280;51940;52.126;-0.994;2023-01-29T12:23:40;101390.30;;;8.55;100.00
62948;BME280;51940;52.126;-0.994;2023-01-29T12:26:19;101381.06;;;8.51;100.00
62948;BME280;51940;52.126;-0.994;2023-01-29T12:29:30;101380.71;;;8.48;100.00
62948;BME280;51940;52.126;-0.994;2023-01-29T12:34:45;101376.46;;;8.46;100.00
62948;BME280;51940;52.126;-0.994;2023-01-29T12:37:43;101370.75;;;8.49;100.00
62948;BME280;51940;52.126;-0.994;2023-01-29T12:40:14;101362.58;;;8.51;100.00
62948;BME280;51940;52.126;-0.994;2023-01-29T12:42:43;101359.20;;;8.52;100.00
62948;BME280;51940;52.126;-0.994;2023-01-29T12:45:16;101361.33;;;8.54;100.00
62948;BME280;51940;52.126;-0.994;2023-01-29T12:47:55;101351.37;;;8.61;100.00
62948;BME280;51940;52.126;-0.994;2023-01-29T12:50:32;101351.90;;;8.66;100.00
62948;BME280;51940;52.126;-0.994;2023-01-29T12:53:15;101350.65;;;8.74;100.00
62948;BME280;51940;52.126;-0.994;2023-01-29T12:55:48;101347.61;;;8.76;100.00
62948;BME280;51940;52.126;-0.994;2023-01-29T12:58:28;101339.79;;;8.80;100.00
62948;BME280;51940;52.126;-0.994;2023-01-29T13:00:55;101335.86;;;8.86;100.00
62948;BME280;51940;52.126;-0.994;2023-01-29T13:03:38;101332.65;;;8.91;100.00
62948;BME280;51940;52.126;-0.994;2023-01-29T13:06:19;101330.14;;;8.96;100.00
62948;BME280;51940;52.126;-0.994;2023-01-29T13:09:03;101333.34;;;8.96;100.00
62948;BME280;51940;52.126;-0.994;2023-01-29T13:11:51;101340.65;;;8.99;100.00
62948;BME280;51940;52.126;-0.994;2023-01-29T13:14:25;101334.58;;;9.05;100.00
62948;BME280;51940;52.126;-0.994;2023-01-29T13:17:06;101329.92;;;9.13;100.00
62948;BME280;51940;52.126;-0.994;2023-01-29T13:19:37;101323.70;;;9.16;100.00
62948;BME280;51940;52.126;-0.994;2023-01-29T13:22:16;101318.33;;;9.19;100.00
62948;BME280;51940;52.126;-0.994;2023-01-29T13:24:42;101314.95;;;9.19;100.00
62948;BME280;51940;52.126;-0.994;2023-01-29T13:27:20;101314.24;;;9.18;100.00
62948;BME280;51940;52.126;-0.994;2023-01-29T13:29:46;101311.59;;;9.16;100.00
62948;BME280;51940;52.126;-0.994;2023-01-29T13:32:36;101304.46;;;9.13;100.00
62948;BME280;51940;52.126;-0.994;2023-01-29T13:35:16;101304.29;;;9.13;100.00
62948;BME280;51940;52.126;-0.994;2023-01-29T13:37:50;101299.30;;;9.13;100.00
62948;BME280;51940;52.126;-0.994;2023-01-29T13:40:29;101298.95;;;9.14;100.00
62948;BME280;51940;52.126;-0.994;2023-01-29T13:42:56;101295.23;;;9.08;100.00
62948;BME280;51940;52.126;-0.994;2023-01-29T13:45:26;101296.31;;;9.06;100.00
62948;BME280;51940;52.126;-0.994;2023-01-29T13:48:08;101293.64;;;9.08;100.00
62948;BME280;51940;52.126;-0.994;2023-01-29T13:50:41;101294.54;;;9.08;100.00
62948;BME280;51940;52.126;-0.994;2023-01-29T13:53:39;101285.28;;;9.05;100.00
62948;BME280;51940;52.126;-0.994;2023-01-29T13:56:28;101279.05;;;9.04;100.00
62948;BME280;51940;52.126;-0.994;2023-01-29T13:58:55;101270.69;;;9.07;100.00
62948;BME280;51940;52.126;-0.994;2023-01-29T14:07:00;101252.73;;;9.01;100.00
62948;BME280;51940;52.126;-0.994;2023-01-29T14:17:17;101237.50;;;8.84;100.00
62948;BME280;51940;52.126;-0.994;2023-01-29T14:19:59;101240.34;;;8.85;100.00
62948;BME280;51940;52.126;-0.994;2023-01-29T14:22:27;101238.18;;;8.88;100.00
62948;BME280;51940;52.126;-0.994;2023-01-29T14:25:00;101240.86;;;8.88;100.00
62948;BME280;51940;52.126;-0.994;2023-01-29T14:27:27;101238.72;;;8.87;100.00
62948;BME280;51940;52.126;-0.994;2023-01-29T14:30:07;101234.64;;;8.86;100.00
62948;BME280;51940;52.126;-0.994;2023-01-29T14:32:38;101236.23;;;8.86;100.00
62948;BME280;51940;52.126;-0.994;2023-01-29T14:35:19;101235.69;;;8.87;100.00
62948;BME280;51940;52.126;-0.994;2023-01-29T14:37:48;101227.54;;;8.83;100.00
62948;BME280;51940;52.126;-0.994;2023-01-29T14:40:22;101228.46;;;8.75;100.00
62948;BME280;51940;52.126;-0.994;2023-01-29T14:43:04;101220.65;;;8.68;100.00
62948;BME280;51940;52.126;-0.994;2023-01-29T14:45:31;101217.11;;;8.63;100.00
62948;BME280;51940;52.126;-0.994;2023-01-29T14:53:08;101216.92;;;8.62;100.00